sensor_id;sensor_type;location;lat;lon;timestamp;temperature;humidity
19256;DHT22;9762;52.490;13.410;2023-08-12T00:00:11;24.20;79.50
19256;DHT22;9762;52.490;13.410;2023-08-12T00:02:40;24.20;79.70
19256;DHT22;9762;52.490;13.410;2023-08-12T00:05:07;24.20;79.90
19256;DHT22;9762;52.490;13.410;2023-08-12T00:07:34;24.20;80.00
19256;DHT22;9762;52.490;13.410;2023-08-12T00:10:03;24.10;80.00
19256;DHT22;9762;52.490;13.410;2023-08-12T00:12:33;24.10;80.10
19256;DHT22;9762;52.490;13.410;2023-08-12T00:14:59;24.10;80.20
19256;DHT22;9762;52.490;13.410;2023-08-12T00:17:25;24.10;80.30
19256;DHT22;9762;52.490;13.410;2023-08-12T00:19:51;24.00;80.40
19256;DHT22;9762;52.490;13.410;2023-08-12T00:22:17;24.00;80.40
19256;DHT22;9762;52.490;13.410;2023-08-12T00:24:42;24.00;80.50
19256;DHT22;9762;52.490;13.410;2023-08-12T00:27:08;24.00;80.60
19256;DHT22;9762;52.490;13.410;2023-08-12T00:29:34;24.00;80.70
19256;DHT22;9762;52.490;13.410;2023-08-12T00:32:00;24.00;80.70
19256;DHT22;9762;52.490;13.410;2023-08-12T00:34:26;23.90;80.70
19256;DHT22;9762;52.490;13.410;2023-08-12T00:36:52;23.90;80.80
19256;DHT22;9762;52.490;13.410;2023-08-12T00:39:17;23.90;80.80
19256;DHT22;9762;52.490;13.410;2023-08-12T00:41:43;23.90;81.00
19256;DHT22;9762;52.490;13.410;2023-08-12T00:44:08;23.90;81.20
19256;DHT22;9762;52.490;13.410;2023-08-12T00:46:35;23.90;81.10
19256;DHT22;9762;52.490;13.410;2023-08-12T00:49:01;23.80;81.10
19256;DHT22;9762;52.490;13.410;2023-08-12T00:51:27;23.80;81.30
19256;DHT22;9762;52.490;13.410;2023-08-12T00:53:54;23.80;81.30
19256;DHT22;9762;52.490;13.410;2023-08-12T00:56:22;23.80;81.10
19256;DHT22;9762;52.490;13.410;2023-08-12T00:58:48;23.80;81.20
19256;DHT22;9762;52.490;13.410;2023-08-12T01:01:14;23.80;81.10
19256;DHT22;9762;52.490;13.410;2023-08-12T01:03:41;23.80;81.10
19256;DHT22;9762;52.490;13.410;2023-08-12T01:06:07;23.80;81.20
19256;DHT22;9762;52.490;13.410;2023-08-12T01:08:33;23.70;81.10
19256;DHT22;9762;52.490;13.410;2023-08-12T01:16:31;23.70;81.20
19256;DHT22;9762;52.490;13.410;2023-08-12T01:18:59;23.70;81.30
19256;DHT22;9762;52.490;13.410;2023-08-12T01:21:28;23.60;81.30
19256;DHT22;9762;52.490;13.410;2023-08-12T01:23:55;23.60;81.40
19256;DHT22;9762;52.490;13.410;2023-08-12T01:26:20;23.70;81.30
19256;DHT22;9762;52.490;13.410;2023-08-12T01:28:46;23.60;81.40
19256;DHT22;9762;52.490;13.410;2023-08-12T01:31:17;23.60;81.50
19256;DHT22;9762;52.490;13.410;2023-08-12T01:33:52;23.60;82.40
19256;DHT22;9762;52.490;13.410;2023-08-12T01:36:21;23.60;81.60
19256;DHT22;9762;52.490;13.410;2023-08-12T01:38:51;23.60;81.50
19256;DHT22;9762;52.490;13.410;2023-08-12T01:41:18;23.60;81.50
19256;DHT22;9762;52.490;13.410;2023-08-12T01:43:45;23.60;81.50
19256;DHT22;9762;52.490;13.410;2023-08-12T01:46:11;23.50;81.40
19256;DHT22;9762;52.490;13.410;2023-08-12T01:48:36;23.60;81.40
19256;DHT22;9762;52.490;13.410;2023-08-12T01:51:02;23.50;81.40
19256;DHT22;9762;52.490;13.410;2023-08-12T01:53:28;23.50;81.50
19256;DHT22;9762;52.490;13.410;2023-08-12T01:55:54;23.50;81.60
19256;DHT22;9762;52.490;13.410;2023-08-12T01:58:19;23.50;81.60
19256;DHT22;9762;52.490;13.410;2023-08-12T02:00:45;23.50;81.60
19256;DHT22;9762;52.490;13.410;2023-08-12T02:03:11;23.50;81.60
19256;DHT22;9762;52.490;13.410;2023-08-12T02:05:36;23.50;81.70
19256;DHT22;9762;52.490;13.410;2023-08-12T02:08:03;23.50;81.80
19256;DHT22;9762;52.490;13.410;2023-08-12T02:10:29;23.40;81.70
19256;DHT22;9762;52.490;13.410;2023-08-12T02:12:55;23.40;81.70
19256;DHT22;9762;52.490;13.410;2023-08-12T02:15:20;23.40;81.80
19256;DHT22;9762;52.490;13.410;2023-08-12T02:17:46;23.40;81.90
19256;DHT22;9762;52.490;13.410;2023-08-12T02:20:14;23.40;82.60
19256;DHT22;9762;52.490;13.410;2023-08-12T02:22:39;23.40;81.90
19256;DHT22;9762;52.490;13.410;2023-08-12T02:25:05;23.40;82.20
19256;DHT22;9762;52.490;13.410;2023-08-12T02:27:30;23.40;82.20
19256;DHT22;9762;52.490;13.410;2023-08-12T02:29:56;23.30;82.10
19256;DHT22;9762;52.490;13.410;2023-08-12T02:32:22;23.40;82.10
19256;DHT22;9762;52.490;13.410;2023-08-12T02:34:47;23.30;82.10
19256;DHT22;9762;52.490;13.410;2023-08-12T02:37:13;23.30;82.10
19256;DHT22;9762;52.490;13.410;2023-08-12T02:39:39;23.30;82.30
19256;DHT22;9762;52.490;13.410;2023-08-12T02:42:04;23.30;82.20
19256;DHT22;9762;52.490;13.410;2023-08-12T02:44:30;23.30;82.10
19256;DHT22;9762;52.490;13.410;2023-08-12T02:46:56;23.30;82.20
19256;DHT22;9762;52.490;13.410;2023-08-12T02:49:21;23.30;82.10
19256;DHT22;9762;52.490;13.410;2023-08-12T02:51:47;23.30;82.40
19256;DHT22;9762;52.490;13.410;2023-08-12T02:54:12;23.30;82.20
19256;DHT22;9762;52.490;13.410;2023-08-12T02:56:38;23.30;82.30
19256;DHT22;9762;52.490;13.410;2023-08-12T02:59:04;23.30;82.50
19256;DHT22;9762;52.490;13.410;2023-08-12T03:01:29;23.30;82.40
19256;DHT22;9762;52.490;13.410;2023-08-12T03:03:55;23.30;82.60
19256;DHT22;9762;52.490;13.410;2023-08-12T03:06:21;23.30;82.70
19256;DHT22;9762;52.490;13.410;2023-08-12T03:08:47;23.30;82.70
19256;DHT22;9762;52.490;13.410;2023-08-12T03:11:12;23.30;82.70
19256;DHT22;9762;52.490;13.410;2023-08-12T03:13:38;23.30;82.80
19256;DHT22;9762;52.490;13.410;2023-08-12T03:16:03;23.30;82.80
19256;DHT22;9762;52.490;13.410;2023-08-12T03:18:29;23.30;82.80
19256;DHT22;9762;52.490;13.410;2023-08-12T03:20:55;23.30;82.90
19256;DHT22;9762;52.490;13.410;2023-08-12T03:23:20;23.30;82.90
19256;DHT22;9762;52.490;13.410;2023-08-12T03:25:49;23.30;82.90
19256;DHT22;9762;52.490;13.410;2023-08-12T03:28:15;23.30;82.90
19256;DHT22;9762;52.490;13.410;2023-08-12T03:30:41;23.30;82.90
19256;DHT22;9762;52.490;13.410;2023-08-12T03:33:07;23.20;82.80
19256;DHT22;9762;52.490;13.410;2023-08-12T03:35:32;23.20;82.90
19256;DHT22;9762;52.490;13.410;2023-08-12T03:37:58;23.20;82.90
19256;DHT22;9762;52.490;13.410;2023-08-12T03:40:23;23.20;82.90
19256;DHT22;9762;52.490;13.410;2023-08-12T03:42:49;23.20;82.90
19256;DHT22;9762;52.490;13.410;2023-08-12T03:45:16;23.20;82.90
19256;DHT22;9762;52.490;13.410;2023-08-12T03:47:41;23.20;83.70
19256;DHT22;9762;52.490;13.410;2023-08-12T03:50:07;23.20;83.10
19256;DHT22;9762;52.490;13.410;2023-08-12T03:52:33;23.20;83.20
19256;DHT22;9762;52.490;13.410;2023-08-12T03:54:58;23.20;83.10
19256;DHT22;9762;52.490;13.410;2023-08-12T03:57:24;23.20;83.10
19256;DHT22;9762;52.490;13.410;2023-08-12T03:59:50;23.10;83.00
19256;DHT22;9762;52.490;13.410;2023-08-12T04:02:15;23.10;83.10
19256;DHT22;9762;52.490;13.410;2023-08-12T04:04:41;23.10;83.40
19256;DHT22;9762;52.490;13.410;2023-08-12T04:07:09;23.10;83.30
19256;DHT22;9762;52.490;13.410;2023-08-12T04:09:34;23.10;83.40
19256;DHT22;9762;52.490;13.410;2023-08-12T04:12:00;23.10;83.40
19256;DHT22;9762;52.490;13.410;2023-08-12T04:14:26;23.10;83.40
19256;DHT22;9762;52.490;13.410;2023-08-12T04:16:51;23.10;83.40
19256;DHT22;9762;52.490;13.410;2023-08-12T04:19:17;23.00;83.70
19256;DHT22;9762;52.490;13.410;2023-08-12T04:21:42;23.00;83.80
19256;DHT22;9762;52.490;13.410;2023-08-12T04:24:11;23.00;83.60
19256;DHT22;9762;52.490;13.410;2023-08-12T04:26:37;23.00;83.70
19256;DHT22;9762;52.490;13.410;2023-08-12T04:29:03;23.00;83.80
19256;DHT22;9762;52.490;13.410;2023-08-12T04:31:28;23.00;83.90
19256;DHT22;9762;52.490;13.410;2023-08-12T04:33:54;23.00;83.90
19256;DHT22;9762;52.490;13.410;2023-08-12T04:36:20;23.00;84.10
19256;DHT22;9762;52.490;13.410;2023-08-12T04:38:45;23.00;84.00
19256;DHT22;9762;52.490;13.410;2023-08-12T04:41:11;23.00;84.20
19256;DHT22;9762;52.490;13.410;2023-08-12T04:43:36;23.00;84.10
19256;DHT22;9762;52.490;13.410;2023-08-12T04:46:02;23.00;84.10
19256;DHT22;9762;52.490;13.410;2023-08-12T04:48:28;23.00;84.00
19256;DHT22;9762;52.490;13.410;2023-08-12T04:50:53;23.00;84.00
19256;DHT22;9762;52.490;13.410;2023-08-12T04:53:19;23.10;83.60
19256;DHT22;9762;52.490;13.410;2023-08-12T04:55:45;23.10;83.20
19256;DHT22;9762;52.490;13.410;2023-08-12T04:58:15;23.10;82.90
19256;DHT22;9762;52.490;13.410;2023-08-12T05:00:40;23.20;82.80
19256;DHT22;9762;52.490;13.410;2023-08-12T05:03:06;23.20;82.70
19256;DHT22;9762;52.490;13.410;2023-08-12T05:05:31;23.20;82.50
19256;DHT22;9762;52.490;13.410;2023-08-12T05:07:57;23.30;82.30
19256;DHT22;9762;52.490;13.410;2023-08-12T05:10:22;23.30;82.20
19256;DHT22;9762;52.490;13.410;2023-08-12T05:12:48;23.40;82.10
19256;DHT22;9762;52.490;13.410;2023-08-12T05:15:15;23.40;82.00
19256;DHT22;9762;52.490;13.410;2023-08-12T05:17:41;23.50;81.90
19256;DHT22;9762;52.490;13.410;2023-08-12T05:20:07;23.50;81.70
19256;DHT22;9762;52.490;13.410;2023-08-12T05:22:33;23.60;81.80
19256;DHT22;9762;52.490;13.410;2023-08-12T05:24:59;23.60;81.70
19256;DHT22;9762;52.490;13.410;2023-08-12T05:27:25;23.70;81.40
19256;DHT22;9762;52.490;13.410;2023-08-12T05:29:50;23.80;81.30
19256;DHT22;9762;52.490;13.410;2023-08-12T05:32:16;23.80;81.10
19256;DHT22;9762;52.490;13.410;2023-08-12T05:34:41;23.90;81.00
19256;DHT22;9762;52.490;13.410;2023-08-12T05:37:08;23.90;80.70
19256;DHT22;9762;52.490;13.410;2023-08-12T05:39:34;24.00;80.70
19256;DHT22;9762;52.490;13.410;2023-08-12T05:42:00;24.00;80.60
19256;DHT22;9762;52.490;13.410;2023-08-12T05:44:25;24.10;80.50
19256;DHT22;9762;52.490;13.410;2023-08-12T05:46:51;24.10;80.40
19256;DHT22;9762;52.490;13.410;2023-08-12T05:49:16;24.20;80.20
19256;DHT22;9762;52.490;13.410;2023-08-12T05:51:42;24.20;80.60
19256;DHT22;9762;52.490;13.410;2023-08-12T05:54:08;24.20;80.30
19256;DHT22;9762;52.490;13.410;2023-08-12T05:56:33;24.20;80.10
19256;DHT22;9762;52.490;13.410;2023-08-12T05:58:59;24.30;80.00
19256;DHT22;9762;52.490;13.410;2023-08-12T06:01:24;24.40;79.80
19256;DHT22;9762;52.490;13.410;2023-08-12T06:03:50;24.40;80.10
19256;DHT22;9762;52.490;13.410;2023-08-12T06:06:16;24.50;79.70
19256;DHT22;9762;52.490;13.410;2023-08-12T06:08:41;24.50;79.40
19256;DHT22;9762;52.490;13.410;2023-08-12T06:11:07;24.60;80.10
19256;DHT22;9762;52.490;13.410;2023-08-12T06:13:32;24.70;79.20
19256;DHT22;9762;52.490;13.410;2023-08-12T06:15:58;24.70;79.20
19256;DHT22;9762;52.490;13.410;2023-08-12T06:18:24;24.80;79.10
19256;DHT22;9762;52.490;13.410;2023-08-12T06:20:49;24.80;78.90
19256;DHT22;9762;52.490;13.410;2023-08-12T06:23:16;24.90;78.70
19256;DHT22;9762;52.490;13.410;2023-08-12T06:25:41;24.90;78.50
19256;DHT22;9762;52.490;13.410;2023-08-12T06:28:08;25.00;78.40
19256;DHT22;9762;52.490;13.410;2023-08-12T06:30:35;25.00;78.30
19256;DHT22;9762;52.490;13.410;2023-08-12T06:33:01;25.10;78.40
19256;DHT22;9762;52.490;13.410;2023-08-12T06:35:27;25.10;78.10
19256;DHT22;9762;52.490;13.410;2023-08-12T06:37:52;25.10;78.20
19256;DHT22;9762;52.490;13.410;2023-08-12T06:40:18;25.10;78.50
19256;DHT22;9762;52.490;13.410;2023-08-12T06:42:43;25.10;78.00
19256;DHT22;9762;52.490;13.410;2023-08-12T06:45:09;25.10;78.20
19256;DHT22;9762;52.490;13.410;2023-08-12T06:47:35;25.10;77.80
19256;DHT22;9762;52.490;13.410;2023-08-12T06:50:01;25.20;77.90
19256;DHT22;9762;52.490;13.410;2023-08-12T06:52:27;25.20;77.90
19256;DHT22;9762;52.490;13.410;2023-08-12T06:54:53;25.30;78.00
19256;DHT22;9762;52.490;13.410;2023-08-12T06:57:18;25.30;77.90
19256;DHT22;9762;52.490;13.410;2023-08-12T06:59:44;25.40;77.90
19256;DHT22;9762;52.490;13.410;2023-08-12T07:02:09;25.40;77.80
19256;DHT22;9762;52.490;13.410;2023-08-12T07:04:35;25.40;77.70
19256;DHT22;9762;52.490;13.410;2023-08-12T07:07:01;25.40;77.50
19256;DHT22;9762;52.490;13.410;2023-08-12T07:09:26;25.50;77.70
19256;DHT22;9762;52.490;13.410;2023-08-12T07:11:52;25.50;77.60
19256;DHT22;9762;52.490;13.410;2023-08-12T07:14:18;25.50;77.60
19256;DHT22;9762;52.490;13.410;2023-08-12T07:16:43;25.60;77.50
19256;DHT22;9762;52.490;13.410;2023-08-12T07:19:09;25.60;77.40
19256;DHT22;9762;52.490;13.410;2023-08-12T07:21:35;25.70;77.40
19256;DHT22;9762;52.490;13.410;2023-08-12T07:24:00;25.70;77.30
19256;DHT22;9762;52.490;13.410;2023-08-12T07:26:26;25.80;77.50
19256;DHT22;9762;52.490;13.410;2023-08-12T07:28:52;25.80;77.50
19256;DHT22;9762;52.490;13.410;2023-08-12T07:31:18;25.90;77.80
19256;DHT22;9762;52.490;13.410;2023-08-12T07:33:43;25.90;77.90
19256;DHT22;9762;52.490;13.410;2023-08-12T07:36:09;25.90;77.80
19256;DHT22;9762;52.490;13.410;2023-08-12T07:38:35;26.00;77.50
19256;DHT22;9762;52.490;13.410;2023-08-12T07:41:00;26.00;77.40
19256;DHT22;9762;52.490;13.410;2023-08-12T07:43:26;26.10;77.40
19256;DHT22;9762;52.490;13.410;2023-08-12T07:45:52;26.20;77.60
19256;DHT22;9762;52.490;13.410;2023-08-12T07:48:19;26.30;77.50
19256;DHT22;9762;52.490;13.410;2023-08-12T07:50:45;26.30;77.00
19256;DHT22;9762;52.490;13.410;2023-08-12T07:53:10;26.40;77.00
19256;DHT22;9762;52.490;13.410;2023-08-12T07:55:36;26.50;77.00
19256;DHT22;9762;52.490;13.410;2023-08-12T07:58:02;26.50;76.90
19256;DHT22;9762;52.490;13.410;2023-08-12T08:00:29;26.60;76.80
19256;DHT22;9762;52.490;13.410;2023-08-12T08:02:55;26.70;76.50
19256;DHT22;9762;52.490;13.410;2023-08-12T08:05:21;26.70;76.00
19256;DHT22;9762;52.490;13.410;2023-08-12T08:07:46;26.80;76.00
19256;DHT22;9762;52.490;13.410;2023-08-12T08:10:12;26.80;76.10
19256;DHT22;9762;52.490;13.410;2023-08-12T08:12:38;26.90;75.90
19256;DHT22;9762;52.490;13.410;2023-08-12T08:15:04;26.90;75.50
19256;DHT22;9762;52.490;13.410;2023-08-12T08:17:30;27.00;75.30
19256;DHT22;9762;52.490;13.410;2023-08-12T08:19:56;27.00;75.50
19256;DHT22;9762;52.490;13.410;2023-08-12T08:22:21;27.10;75.40
19256;DHT22;9762;52.490;13.410;2023-08-12T08:24:47;27.10;75.30
19256;DHT22;9762;52.490;13.410;2023-08-12T08:27:13;27.10;75.00
19256;DHT22;9762;52.490;13.410;2023-08-12T08:29:39;27.20;75.00
19256;DHT22;9762;52.490;13.410;2023-08-12T08:32:05;27.20;75.00
19256;DHT22;9762;52.490;13.410;2023-08-12T08:34:31;27.10;75.10
19256;DHT22;9762;52.490;13.410;2023-08-12T08:36:57;27.20;75.10
19256;DHT22;9762;52.490;13.410;2023-08-12T08:39:22;27.10;75.20
19256;DHT22;9762;52.490;13.410;2023-08-12T08:41:48;27.10;75.70
19256;DHT22;9762;52.490;13.410;2023-08-12T08:44:15;27.10;75.90
19256;DHT22;9762;52.490;13.410;2023-08-12T08:46:42;27.10;75.80
19256;DHT22;9762;52.490;13.410;2023-08-12T08:49:09;27.10;75.90
19256;DHT22;9762;52.490;13.410;2023-08-12T08:51:36;27.10;75.90
19256;DHT22;9762;52.490;13.410;2023-08-12T08:54:05;27.10;76.00
19256;DHT22;9762;52.490;13.410;2023-08-12T08:56:31;27.10;76.10
19256;DHT22;9762;52.490;13.410;2023-08-12T08:59:01;27.10;76.20
19256;DHT22;9762;52.490;13.410;2023-08-12T09:01:27;27.10;76.10
19256;DHT22;9762;52.490;13.410;2023-08-12T09:03:54;27.10;77.10
19256;DHT22;9762;52.490;13.410;2023-08-12T09:06:21;27.10;76.60
19256;DHT22;9762;52.490;13.410;2023-08-12T09:08:49;27.10;77.00
19256;DHT22;9762;52.490;13.410;2023-08-12T09:11:17;27.20;77.50
19256;DHT22;9762;52.490;13.410;2023-08-12T09:13:43;27.20;77.60
19256;DHT22;9762;52.490;13.410;2023-08-12T09:16:08;27.20;77.50
19256;DHT22;9762;52.490;13.410;2023-08-12T09:18:35;27.20;77.80
19256;DHT22;9762;52.490;13.410;2023-08-12T09:21:02;27.20;77.70
19256;DHT22;9762;52.490;13.410;2023-08-12T09:23:27;27.20;77.70
19256;DHT22;9762;52.490;13.410;2023-08-12T09:25:53;27.20;78.50
19256;DHT22;9762;52.490;13.410;2023-08-12T09:28:19;27.20;78.40
19256;DHT22;9762;52.490;13.410;2023-08-12T09:30:50;27.30;78.40
19256;DHT22;9762;52.490;13.410;2023-08-12T09:33:24;27.30;78.30
19256;DHT22;9762;52.490;13.410;2023-08-12T09:35:50;27.40;78.30
19256;DHT22;9762;52.490;13.410;2023-08-12T09:38:16;27.40;78.00
19256;DHT22;9762;52.490;13.410;2023-08-12T09:40:42;27.40;77.80
19256;DHT22;9762;52.490;13.410;2023-08-12T09:43:08;27.50;77.70
19256;DHT22;9762;52.490;13.410;2023-08-12T09:45:34;27.50;77.30
19256;DHT22;9762;52.490;13.410;2023-08-12T09:48:00;27.40;77.00
19256;DHT22;9762;52.490;13.410;2023-08-12T09:50:27;27.50;76.80
19256;DHT22;9762;52.490;13.410;2023-08-12T09:52:53;27.50;77.00
19256;DHT22;9762;52.490;13.410;2023-08-12T09:55:22;27.50;77.20
19256;DHT22;9762;52.490;13.410;2023-08-12T09:57:50;27.50;77.10
19256;DHT22;9762;52.490;13.410;2023-08-12T10:00:18;27.50;77.20
19256;DHT22;9762;52.490;13.410;2023-08-12T10:02:45;27.60;77.30
19256;DHT22;9762;52.490;13.410;2023-08-12T10:05:32;27.60;77.30
19256;DHT22;9762;52.490;13.410;2023-08-12T10:07:58;27.70;77.30
19256;DHT22;9762;52.490;13.410;2023-08-12T10:10:25;27.80;77.30
19256;DHT22;9762;52.490;13.410;2023-08-12T10:12:51;27.70;77.20
19256;DHT22;9762;52.490;13.410;2023-08-12T10:15:17;27.80;77.40
19256;DHT22;9762;52.490;13.410;2023-08-12T10:17:43;27.80;77.40
19256;DHT22;9762;52.490;13.410;2023-08-12T10:20:13;27.80;77.10
19256;DHT22;9762;52.490;13.410;2023-08-12T10:22:39;27.80;77.30
19256;DHT22;9762;52.490;13.410;2023-08-12T10:25:07;27.90;77.00
19256;DHT22;9762;52.490;13.410;2023-08-12T10:27:34;27.90;76.90
19256;DHT22;9762;52.490;13.410;2023-08-12T10:30:05;28.00;77.20
19256;DHT22;9762;52.490;13.410;2023-08-12T10:32:32;28.10;77.30
19256;DHT22;9762;52.490;13.410;2023-08-12T10:34:58;28.10;77.40
19256;DHT22;9762;52.490;13.410;2023-08-12T10:37:25;28.20;77.60
19256;DHT22;9762;52.490;13.410;2023-08-12T10:39:54;28.20;77.30
19256;DHT22;9762;52.490;13.410;2023-08-12T10:45:12;28.20;77.40
19256;DHT22;9762;52.490;13.410;2023-08-12T10:50:25;28.30;77.50
19256;DHT22;9762;52.490;13.410;2023-08-12T10:52:52;28.30;77.40
19256;DHT22;9762;52.490;13.410;2023-08-12T10:55:23;28.40;77.90
19256;DHT22;9762;52.490;13.410;2023-08-12T10:57:53;28.40;78.00
19256;DHT22;9762;52.490;13.410;2023-08-12T11:00:29;28.50;78.00
19256;DHT22;9762;52.490;13.410;2023-08-12T11:02:56;28.50;78.20
19256;DHT22;9762;52.490;13.410;2023-08-12T11:05:23;28.50;78.60
19256;DHT22;9762;52.490;13.410;2023-08-12T11:07:59;28.50;78.50
19256;DHT22;9762;52.490;13.410;2023-08-12T11:10:28;28.60;79.40
19256;DHT22;9762;52.490;13.410;2023-08-12T11:12:56;28.50;78.50
19256;DHT22;9762;52.490;13.410;2023-08-12T11:15:37;28.60;78.70
19256;DHT22;9762;52.490;13.410;2023-08-12T11:18:10;28.50;78.80
19256;DHT22;9762;52.490;13.410;2023-08-12T11:20:38;28.50;78.80
19256;DHT22;9762;52.490;13.410;2023-08-12T11:23:04;28.50;78.80
19256;DHT22;9762;52.490;13.410;2023-08-12T11:25:31;28.60;78.70
19256;DHT22;9762;52.490;13.410;2023-08-12T11:27:57;28.50;78.60
19256;DHT22;9762;52.490;13.410;2023-08-12T11:30:23;28.60;78.60
19256;DHT22;9762;52.490;13.410;2023-08-12T11:32:51;28.60;78.30
19256;DHT22;9762;52.490;13.410;2023-08-12T11:35:18;28.50;78.10
19256;DHT22;9762;52.490;13.410;2023-08-12T11:37:46;28.50;77.70
19256;DHT22;9762;52.490;13.410;2023-08-12T11:40:13;28.40;77.50
19256;DHT22;9762;52.490;13.410;2023-08-12T11:42:44;28.50;77.20
19256;DHT22;9762;52.490;13.410;2023-08-12T11:45:14;28.50;77.20
19256;DHT22;9762;52.490;13.410;2023-08-12T11:47:40;28.50;78.00
19256;DHT22;9762;52.490;13.410;2023-08-12T11:50:08;28.50;77.50
19256;DHT22;9762;52.490;13.410;2023-08-12T11:52:35;28.40;77.30
19256;DHT22;9762;52.490;13.410;2023-08-12T11:55:01;28.40;77.10
19256;DHT22;9762;52.490;13.410;2023-08-12T11:57:27;28.40;77.10
19256;DHT22;9762;52.490;13.410;2023-08-12T11:59:58;28.50;77.20
19256;DHT22;9762;52.490;13.410;2023-08-12T12:02:25;28.50;77.60
19256;DHT22;9762;52.490;13.410;2023-08-12T12:04:52;28.50;77.90
19256;DHT22;9762;52.490;13.410;2023-08-12T12:07:25;28.50;77.90
19256;DHT22;9762;52.490;13.410;2023-08-12T12:09:54;28.50;78.10
19256;DHT22;9762;52.490;13.410;2023-08-12T12:12:24;28.50;78.10
19256;DHT22;9762;52.490;13.410;2023-08-12T12:14:52;28.50;78.00
19256;DHT22;9762;52.490;13.410;2023-08-12T12:17:23;28.50;77.80
19256;DHT22;9762;52.490;13.410;2023-08-12T12:19:56;28.50;77.70
19256;DHT22;9762;52.490;13.410;2023-08-12T12:22:29;28.50;78.40
19256;DHT22;9762;52.490;13.410;2023-08-12T12:24:58;28.50;78.30
19256;DHT22;9762;52.490;13.410;2023-08-12T12:27:24;28.40;78.40
19256;DHT22;9762;52.490;13.410;2023-08-12T12:29:50;28.40;78.40
19256;DHT22;9762;52.490;13.410;2023-08-12T12:32:19;28.40;79.00
19256;DHT22;9762;52.490;13.410;2023-08-12T12:34:45;28.40;78.10
19256;DHT22;9762;52.490;13.410;2023-08-12T12:37:12;28.30;75.90
19256;DHT22;9762;52.490;13.410;2023-08-12T12:39:38;28.30;78.00
19256;DHT22;9762;52.490;13.410;2023-08-12T12:42:04;28.30;77.90
19256;DHT22;9762;52.490;13.410;2023-08-12T12:44:29;28.30;77.90
19256;DHT22;9762;52.490;13.410;2023-08-12T12:46:55;28.30;78.10
19256;DHT22;9762;52.490;13.410;2023-08-12T12:49:21;28.30;78.40
19256;DHT22;9762;52.490;13.410;2023-08-12T12:51:47;28.40;78.70
19256;DHT22;9762;52.490;13.410;2023-08-12T12:54:12;28.40;78.70
19256;DHT22;9762;52.490;13.410;2023-08-12T12:56:38;28.50;79.10
19256;DHT22;9762;52.490;13.410;2023-08-12T12:59:04;28.50;79.00
19256;DHT22;9762;52.490;13.410;2023-08-12T13:01:29;28.60;78.80
19256;DHT22;9762;52.490;13.410;2023-08-12T13:03:55;28.70;78.30
19256;DHT22;9762;52.490;13.410;2023-08-12T13:06:20;28.80;78.40
19256;DHT22;9762;52.490;13.410;2023-08-12T13:08:46;28.80;78.40
19256;DHT22;9762;52.490;13.410;2023-08-12T13:11:11;28.90;78.50
19256;DHT22;9762;52.490;13.410;2023-08-12T13:13:37;28.90;78.50
19256;DHT22;9762;52.490;13.410;2023-08-12T13:16:03;29.00;78.50
19256;DHT22;9762;52.490;13.410;2023-08-12T13:18:28;29.10;78.70
19256;DHT22;9762;52.490;13.410;2023-08-12T13:20:54;29.20;78.80
19256;DHT22;9762;52.490;13.410;2023-08-12T13:23:20;29.30;78.50
19256;DHT22;9762;52.490;13.410;2023-08-12T13:25:46;29.40;78.40
19256;DHT22;9762;52.490;13.410;2023-08-12T13:28:11;29.60;77.80
19256;DHT22;9762;52.490;13.410;2023-08-12T13:30:37;29.60;77.10
19256;DHT22;9762;52.490;13.410;2023-08-12T13:33:03;29.60;76.90
19256;DHT22;9762;52.490;13.410;2023-08-12T13:35:29;29.80;76.70
19256;DHT22;9762;52.490;13.410;2023-08-12T13:37:55;30.10;76.20
19256;DHT22;9762;52.490;13.410;2023-08-12T13:40:20;30.20;75.00
19256;DHT22;9762;52.490;13.410;2023-08-12T13:42:46;30.40;74.20
19256;DHT22;9762;52.490;13.410;2023-08-12T13:45:12;30.60;73.50
19256;DHT22;9762;52.490;13.410;2023-08-12T13:47:38;30.60;72.70
19256;DHT22;9762;52.490;13.410;2023-08-12T13:50:04;30.80;72.90
19256;DHT22;9762;52.490;13.410;2023-08-12T13:52:30;30.90;72.50
19256;DHT22;9762;52.490;13.410;2023-08-12T13:54:56;31.00;72.10
19256;DHT22;9762;52.490;13.410;2023-08-12T13:57:22;31.10;71.70
19256;DHT22;9762;52.490;13.410;2023-08-12T13:59:47;31.30;71.70
19256;DHT22;9762;52.490;13.410;2023-08-12T14:02:14;31.60;71.30
19256;DHT22;9762;52.490;13.410;2023-08-12T14:04:39;31.80;69.20
19256;DHT22;9762;52.490;13.410;2023-08-12T14:07:05;32.00;69.30
19256;DHT22;9762;52.490;13.410;2023-08-12T14:09:31;32.30;68.60
19256;DHT22;9762;52.490;13.410;2023-08-12T14:11:57;32.60;67.50
19256;DHT22;9762;52.490;13.410;2023-08-12T14:14:24;32.80;66.80
19256;DHT22;9762;52.490;13.410;2023-08-12T14:16:50;33.00;65.40
19256;DHT22;9762;52.490;13.410;2023-08-12T14:19:16;33.00;64.60
19256;DHT22;9762;52.490;13.410;2023-08-12T14:21:43;33.10;64.30
19256;DHT22;9762;52.490;13.410;2023-08-12T14:24:08;33.10;63.90
19256;DHT22;9762;52.490;13.410;2023-08-12T14:26:34;32.90;63.30
19256;DHT22;9762;52.490;13.410;2023-08-12T14:29:00;32.80;63.70
19256;DHT22;9762;52.490;13.410;2023-08-12T14:31:26;32.80;63.70
19256;DHT22;9762;52.490;13.410;2023-08-12T14:33:51;32.80;63.60
19256;DHT22;9762;52.490;13.410;2023-08-12T14:36:17;32.90;63.80
19256;DHT22;9762;52.490;13.410;2023-08-12T14:38:42;32.90;63.40
19256;DHT22;9762;52.490;13.410;2023-08-12T14:41:08;32.90;63.50
19256;DHT22;9762;52.490;13.410;2023-08-12T14:43:34;32.90;63.50
19256;DHT22;9762;52.490;13.410;2023-08-12T14:45:59;32.80;63.70
19256;DHT22;9762;52.490;13.410;2023-08-12T14:48:25;32.80;63.90
19256;DHT22;9762;52.490;13.410;2023-08-12T14:50:50;32.80;64.20
19256;DHT22;9762;52.490;13.410;2023-08-12T14:53:16;32.90;63.50
19256;DHT22;9762;52.490;13.410;2023-08-12T14:55:42;33.00;63.10
19256;DHT22;9762;52.490;13.410;2023-08-12T14:58:07;32.90;62.90
19256;DHT22;9762;52.490;13.410;2023-08-12T15:00:33;33.00;63.00
19256;DHT22;9762;52.490;13.410;2023-08-12T15:02:59;33.00;63.10
19256;DHT22;9762;52.490;13.410;2023-08-12T15:05:25;33.00;63.10
19256;DHT22;9762;52.490;13.410;2023-08-12T15:07:50;33.00;63.40
19256;DHT22;9762;52.490;13.410;2023-08-12T15:10:16;33.00;63.80
19256;DHT22;9762;52.490;13.410;2023-08-12T15:12:42;33.00;63.30
19256;DHT22;9762;52.490;13.410;2023-08-12T15:15:08;33.00;63.20
19256;DHT22;9762;52.490;13.410;2023-08-12T15:17:33;32.80;62.90
19256;DHT22;9762;52.490;13.410;2023-08-12T15:19:59;32.70;63.10
19256;DHT22;9762;52.490;13.410;2023-08-12T15:22:24;32.70;63.00
19256;DHT22;9762;52.490;13.410;2023-08-12T15:24:50;32.70;62.90
19256;DHT22;9762;52.490;13.410;2023-08-12T15:27:18;32.60;63.10
19256;DHT22;9762;52.490;13.410;2023-08-12T15:29:44;32.50;63.20
19256;DHT22;9762;52.490;13.410;2023-08-12T15:32:09;32.50;63.40
19256;DHT22;9762;52.490;13.410;2023-08-12T15:34:35;32.40;63.50